Time;durP1;ratioP1;P1;durP2;ratioP2;P2;SDS_P1;SDS_P2;PMS_P1;PMS_P2;Temp;Humidity;BMP_temperature;BMP_pressure;BME280_temperature;BME280_humidity;BME280_pressure;Samples;Min_cycle;Max_cycle;Signal;HPM_P1;HPM_P2
2023/09/21 00:00:20;;;;;;;3.72;2.40;;;;;16.80;97570.00;;;;5056967;28;20508;-66
2023/09/21 00:02:49;;;;;;;3.22;2.53;;;;;16.90;97570.00;;;;5057123;28;20462;-65
2023/09/21 00:05:20;;;;;;;4.80;2.38;;;;;16.90;97576.00;;;;5058091;28;20045;-66
2023/09/21 00:07:48;;;;;;;2.40;1.77;;;;;16.90;97565.00;;;;5058305;28;20075;-66
2023/09/21 00:10:15;;;;;;;3.90;2.45;;;;;16.90;97566.00;;;;5057127;28;20052;-65
2023/09/21 00:12:42;;;;;;;5.00;2.67;;;;;17.00;97564.00;;;;5056800;28;20079;-65
2023/09/21 00:15:09;;;;;;;4.43;2.38;;;;;16.80;97558.00;;;;5055297;28;20041;-66
2023/09/21 00:17:37;;;;;;;2.83;2.13;;;;;16.80;97560.00;;;;5058616;28;20053;-66
2023/09/21 00:20:23;;;;;;;6.47;2.28;;;;;16.90;97563.00;;;;5060112;28;20071;-66
2023/09/21 00:22:51;;;;;;;4.20;2.75;;;;;16.90;97558.00;;;;5069898;28;20104;-66
2023/09/21 00:25:17;;;;;;;4.07;2.58;;;;;16.90;97551.00;;;;5070572;28;20041;-66
2023/09/21 00:27:44;;;;;;;2.83;2.08;;;;;16.70;97558.00;;;;5068907;28;20051;-66
2023/09/21 00:30:12;;;;;;;4.22;1.90;;;;;16.50;97548.00;;;;5065657;28;20498;-66
2023/09/21 00:32:39;;;;;;;3.22;2.35;;;;;16.30;97544.00;;;;5067014;28;20041;-66
2023/09/21 00:35:11;;;;;;;4.32;2.10;;;;;16.20;97549.00;;;;5064528;28;20136;-66
2023/09/21 00:37:38;;;;;;;2.35;1.98;;;;;16.20;97545.00;;;;5066707;28;20077;-66
2023/09/21 00:40:14;;;;;;;2.90;2.30;;;;;16.30;97546.00;;;;5066131;28;20045;-66
2023/09/21 00:42:42;;;;;;;5.28;2.65;;;;;16.40;97538.00;;;;5065099;28;20055;-66
2023/09/21 00:45:08;;;;;;;3.85;2.40;;;;;16.30;97534.00;;;;5066174;28;20041;-66
2023/09/21 00:47:39;;;;;;;2.47;2.13;;;;;16.30;97535.00;;;;5064382;28;20064;-66
2023/09/21 00:50:11;;;;;;;4.53;2.78;;;;;16.20;97530.00;;;;5060804;28;20151;-66
2023/09/21 00:52:45;;;;;;;4.28;2.30;;;;;16.20;97524.00;;;;5056269;28;20068;-65
2023/09/21 00:55:23;;;;;;;3.25;2.45;;;;;16.10;97525.00;;;;5057677;28;20045;-65
2023/09/21 00:58:11;;;;;;;2.67;2.17;;;;;16.10;97528.00;;;;5056794;28;20063;-66
2023/09/21 01:00:38;;;;;;;3.65;2.35;;;;;16.10;97522.00;;;;5056852;28;20064;-66
2023/09/21 01:03:12;;;;;;;3.25;2.30;;;;;16.10;97521.00;;;;5056917;28;20048;-66
2023/09/21 01:05:40;;;;;;;2.60;2.10;;;;;16.20;97522.00;;;;5057459;28;20049;-65
2023/09/21 01:08:18;;;;;;;4.95;2.65;;;;;16.20;97520.00;;;;5056980;28;20386;-65
2023/09/21 01:10:49;;;;;;;3.42;2.47;;;;;16.20;97518.00;;;;5058201;28;20127;-65
2023/09/21 01:13:17;;;;;;;4.53;2.40;;;;;16.20;97519.00;;;;5057747;28;20049;-65
2023/09/21 01:15:45;;;;;;;3.88;2.15;;;;;16.10;97518.00;;;;5038725;28;20116;-66
2023/09/21 01:18:16;;;;;;;2.88;2.10;;;;;16.10;97499.00;;;;5054019;28;20049;-66
2023/09/21 01:20:44;;;;;;;3.83;2.30;;;;;16.20;97516.00;;;;5054957;28;20409;-65
2023/09/21 01:23:19;;;;;;;4.30;2.13;;;;;16.30;97513.00;;;;5056951;28;20072;-65
2023/09/21 01:25:50;;;;;;;4.47;2.35;;;;;16.30;97524.00;;;;5057871;28;20044;-65
2023/09/21 01:28:20;;;;;;;2.50;2.17;;;;;16.20;97513.00;;;;5057657;28;20045;-66
2023/09/21 01:30:48;;;;;;;3.97;2.03;;;;;16.10;97505.00;;;;5057493;28;20072;-65
2023/09/21 01:33:15;;;;;;;2.97;2.20;;;;;16.10;97505.00;;;;5055401;28;20056;-66
2023/09/21 01:35:43;;;;;;;3.25;2.10;;;;;16.20;97497.00;;;;5054580;28;20085;-67
2023/09/21 01:38:11;;;;;;;8.02;2.25;;;;;16.20;97511.00;;;;5055567;28;20498;-66
2023/09/21 01:40:39;;;;;;;7.78;2.67;;;;;16.30;97496.00;;;;5057001;28;20429;-66
2023/09/21 01:43:08;;;;;;;4.28;2.05;;;;;16.40;97499.00;;;;5057809;28;20077;-66
2023/09/21 01:45:37;;;;;;;2.72;2.42;;;;;16.60;97495.00;;;;5055819;28;20625;-66
2023/09/21 01:48:07;;;;;;;3.50;1.90;;;;;16.70;97501.00;;;;5056479;28;20045;-66
2023/09/21 01:50:48;;;;;;;4.68;2.53;;;;;16.70;97494.00;;;;5054701;28;20049;-66
2023/09/21 01:53:16;;;;;;;3.75;2.50;;;;;16.60;97481.00;;;;5056306;28;20106;-67
2023/09/21 01:55:44;;;;;;;4.45;2.30;;;;;16.70;97484.00;;;;5058976;28;20049;-67
2023/09/21 01:58:11;;;;;;;4.75;2.22;;;;;16.80;97479.00;;;;5058545;28;20107;-67
2023/09/21 02:00:39;;;;;;;2.58;2.10;;;;;16.80;97478.00;;;;5057780;28;20045;-67
2023/09/21 02:03:12;;;;;;;4.80;2.50;;;;;16.90;97476.00;;;;5057232;28;20131;-66
2023/09/21 02:05:40;;;;;;;3.25;2.47;;;;;17.10;97470.00;;;;5055516;28;20512;-67
2023/09/21 02:08:09;;;;;;;5.00;2.42;;;;;17.10;97464.00;;;;5057864;28;20033;-66
2023/09/21 02:10:38;;;;;;;5.28;2.53;;;;;17.10;97456.00;;;;5039213;28;20049;-67
2023/09/21 02:13:05;;;;;;;2.97;2.13;;;;;17.00;97456.00;;;;5057816;28;20382;-66
2023/09/21 02:15:40;;;;;;;2.35;2.03;;;;;16.90;97450.00;;;;5056819;28;20041;-66
2023/09/21 02:18:08;;;;;;;3.72;2.00;;;;;16.90;97447.00;;;;5057599;28;20067;-66
2023/09/21 02:20:38;;;;;;;3.88;2.30;;;;;16.90;97447.00;;;;5057977;28;20053;-66
2023/09/21 02:23:05;;;;;;;2.45;2.25;;;;;17.00;97440.00;;;;5058397;28;20131;-66
2023/09/21 02:25:34;;;;;;;4.40;2.40;;;;;17.00;97447.00;;;;5055313;28;20490;-66
2023/09/21 02:28:09;;;;;;;3.63;2.30;;;;;17.00;97441.00;;;;5055046;28;20144;-66
2023/09/21 02:30:38;;;;;;;4.30;2.13;;;;;17.00;97442.00;;;;5059018;28;20048;-67
2023/09/21 02:33:05;;;;;;;4.00;2.50;;;;;17.00;97442.00;;;;5057531;28;20087;-67
2023/09/21 02:35:33;;;;;;;3.83;1.95;;;;;17.00;97437.00;;;;5058721;28;20123;-67
2023/09/21 02:38:00;;;;;;;3.28;2.13;;;;;17.00;97435.00;;;;5060418;28;20044;-67
2023/09/21 02:40:27;;;;;;;3.25;1.90;;;;;17.00;97430.00;;;;5059602;28;20124;-67
2023/09/21 02:42:54;;;;;;;2.90;2.35;;;;;17.00;97424.00;;;;5058541;28;20091;-67
2023/09/21 02:45:23;;;;;;;3.10;2.08;;;;;17.00;97429.00;;;;5058300;28;20122;-67
2023/09/21 02:47:54;;;;;;;3.63;2.05;;;;;16.90;97416.00;;;;5058373;28;20041;-67
2023/09/21 02:50:22;;;;;;;2.10;1.90;;;;;16.90;97417.00;;;;5057567;28;20083;-67
2023/09/21 02:52:57;;;;;;;2.42;2.13;;;;;16.90;97414.00;;;;5057604;28;20049;-67
2023/09/21 02:55:26;;;;;;;2.85;2.47;;;;;16.80;97420.00;;;;5056796;28;20111;-67
2023/09/21 02:57:55;;;;;;;2.08;1.88;;;;;16.90;97411.00;;;;5055503;28;20048;-67
2023/09/21 03:00:34;;;;;;;3.55;2.30;;;;;16.90;97416.00;;;;5056988;28;20041;-67
2023/09/21 03:03:04;;;;;;;3.15;2.30;;;;;16.90;97408.00;;;;5057669;28;20045;-66
2023/09/21 03:05:38;;;;;;;2.30;1.90;;;;;16.90;97407.00;;;;5041581;28;20045;-67
2023/09/21 03:08:08;;;;;;;2.92;2.17;;;;;16.80;97405.00;;;;5058238;28;20049;-67
2023/09/21 03:10:38;;;;;;;3.65;2.15;;;;;16.80;97402.00;;;;5058087;28;20102;-67
2023/09/21 03:13:05;;;;;;;3.53;2.20;;;;;16.90;97404.00;;;;5058431;28;20478;-67
2023/09/21 03:15:33;;;;;;;2.97;2.38;;;;;17.00;97405.00;;;;5056861;28;20075;-67
2023/09/21 03:18:00;;;;;;;5.00;2.08;;;;;17.10;97394.00;;;;5058335;28;20060;-67
2023/09/21 03:22:56;;;;;;;3.75;2.70;;;;;17.10;97390.00;;;;5060584;28;20051;-67
2023/09/21 03:25:32;;;;;;;5.72;2.30;;;;;17.10;97385.00;;;;5067057;28;20067;-65
2023/09/21 03:28:10;;;;;;;4.95;2.22;;;;;17.00;97377.00;;;;5064961;28;20192;-65
2023/09/21 03:30:38;;;;;;;4.03;2.35;;;;;17.00;97368.00;;;;5062982;28;20075;-65
2023/09/21 03:33:06;;;;;;;2.88;2.05;;;;;17.00;97364.00;;;;5059515;28;20049;-66
2023/09/21 03:35:33;;;;;;;3.70;2.40;;;;;17.10;97354.00;;;;5060006;28;20159;-66
2023/09/21 03:38:00;;;;;;;4.43;2.40;;;;;17.10;97354.00;;;;5059198;28;20521;-66
2023/09/21 03:40:30;;;;;;;2.83;1.92;;;;;17.20;97353.00;;;;5057822;28;20537;-66
2023/09/21 03:42:56;;;;;;;4.38;2.30;;;;;17.20;97348.00;;;;5058466;28;20076;-66
2023/09/21 03:45:26;;;;;;;3.65;1.98;;;;;17.30;97337.00;;;;5057877;28;20051;-66
2023/09/21 03:47:54;;;;;;;5.43;2.50;;;;;17.40;97333.00;;;;5057962;28;20045;-65
2023/09/21 03:50:25;;;;;;;4.85;2.25;;;;;17.40;97335.00;;;;5057762;28;20045;-65
2023/09/21 03:52:54;;;;;;;5.00;2.30;;;;;17.40;97335.00;;;;5057400;28;20083;-65
2023/09/21 03:55:21;;;;;;;3.90;2.40;;;;;17.50;97326.00;;;;5058612;28;20117;-65
2023/09/21 03:57:48;;;;;;;2.47;2.00;;;;;17.50;97324.00;;;;5058272;28;20045;-66
2023/09/21 04:03:06;;;;;;;2.42;2.08;;;;;17.50;97324.00;;;;5058962;28;20049;-66
2023/09/21 04:05:37;;;;;;;3.03;2.40;;;;;17.50;97316.00;;;;5059299;28;20104;-65
2023/09/21 04:08:06;;;;;;;3.83;2.33;;;;;17.50;97313.00;;;;5061673;28;20068;-66
2023/09/21 04:10:33;;;;;;;3.55;2.10;;;;;17.50;97309.00;;;;5060486;28;20110;-65
2023/09/21 04:12:59;;;;;;;3.20;2.47;;;;;17.50;97306.00;;;;5061337;28;20045;-66
2023/09/21 04:15:28;;;;;;;4.45;2.40;;;;;17.50;97305.00;;;;5060619;28;20045;-65
2023/09/21 04:17:56;;;;;;;5.03;2.40;;;;;17.50;97305.00;;;;5061898;28;20056;-65
2023/09/21 04:20:23;;;;;;;3.95;2.40;;;;;17.50;97305.00;;;;5062355;28;20458;-66
2023/09/21 04:22:52;;;;;;;5.57;3.50;;;;;17.60;97304.00;;;;5063957;28;20055;-66
2023/09/21 04:25:19;;;;;;;3.28;2.30;;;;;17.60;97311.00;;;;5061216;28;20045;-66
2023/09/21 04:27:50;;;;;;;3.45;2.17;;;;;17.50;97308.00;;;;5061883;28;20446;-67
2023/09/21 04:30:21;;;;;;;4.15;2.53;;;;;17.40;97310.00;;;;5061613;28;20045;-66
2023/09/21 04:32:49;;;;;;;4.75;2.30;;;;;17.40;97318.00;;;;5058035;28;20543;-66
2023/09/21 04:35:18;;;;;;;4.75;2.53;;;;;17.40;97316.00;;;;5053490;28;20580;-65
2023/09/21 04:37:47;;;;;;;2.63;2.08;;;;;17.40;97322.00;;;;5038644;28;20075;-66
2023/09/21 04:40:15;;;;;;;2.80;2.05;;;;;17.30;97312.00;;;;5054811;28;20041;-66
2023/09/21 04:42:47;;;;;;;3.55;2.55;;;;;17.30;97313.00;;;;5053679;28;20527;-66
2023/09/21 04:45:19;;;;;;;8.00;2.70;;;;;17.30;97313.00;;;;5051986;28;20046;-66
2023/09/21 04:47:53;;;;;;;2.47;2.15;;;;;17.30;97319.00;;;;5052793;28;20060;-66
2023/09/21 04:50:21;;;;;;;3.27;2.30;;;;;17.30;97317.00;;;;5036306;28;20071;-66
2023/09/21 04:52:48;;;;;;;3.55;1.98;;;;;17.30;97318.00;;;;5053485;28;20053;-66
2023/09/21 04:55:17;;;;;;;4.97;2.53;;;;;17.30;97316.00;;;;5056165;28;20041;-66
2023/09/21 04:57:45;;;;;;;3.78;2.20;;;;;17.30;97319.00;;;;5058475;28;20049;-67
2023/09/21 05:00:14;;;;;;;2.38;2.08;;;;;17.30;97320.00;;;;5058568;28;20083;-67
2023/09/21 05:02:43;;;;;;;5.20;2.95;;;;;17.30;97311.00;;;;5056729;28;20044;-67
2023/09/21 05:05:14;;;;;;;3.15;2.30;;;;;17.30;97313.00;;;;5053975;28;20476;-67
2023/09/21 05:07:41;;;;;;;4.53;2.63;;;;;17.30;97312.00;;;;5055004;28;20049;-66
2023/09/21 05:10:11;;;;;;;3.67;2.38;;;;;17.40;97312.00;;;;5055762;28;20124;-67
2023/09/21 05:12:38;;;;;;;3.85;2.78;;;;;17.40;97315.00;;;;5053801;28;20097;-67
2023/09/21 05:15:06;;;;;;;6.22;2.13;;;;;17.40;97317.00;;;;5054107;28;20124;-68
2023/09/21 05:17:36;;;;;;;10.02;2.88;;;;;17.30;97317.00;;;;5054770;28;20119;-66
2023/09/21 05:20:06;;;;;;;4.05;2.60;;;;;17.30;97329.00;;;;5037091;28;20048;-67
2023/09/21 05:22:33;;;;;;;7.53;4.97;;;;;17.50;97320.00;;;;5054602;28;20481;-67
2023/09/21 05:25:01;;;;;;;4.68;2.50;;;;;17.50;97320.00;;;;5053704;28;20041;-66
2023/09/21 05:27:30;;;;;;;4.80;2.85;;;;;17.50;97328.00;;;;5054670;28;20067;-66
2023/09/21 05:29:59;;;;;;;3.75;2.60;;;;;17.50;97323.00;;;;5054074;28;20041;-67
2023/09/21 05:32:26;;;;;;;3.08;2.50;;;;;17.60;97331.00;;;;5053112;28;20127;-66
2023/09/21 05:34:53;;;;;;;6.97;3.03;;;;;17.60;97322.00;;;;5053611;28;20057;-66
2023/09/21 05:37:20;;;;;;;4.13;2.78;;;;;17.50;97327.00;;;;5056057;28;20045;-66
2023/09/21 05:39:48;;;;;;;4.47;2.50;;;;;17.50;97322.00;;;;5054664;28;20492;-65
2023/09/21 05:42:15;;;;;;;6.18;3.25;;;;;17.60;97323.00;;;;5053225;28;20041;-65
2023/09/21 05:44:43;;;;;;;6.25;4.45;;;;;17.70;97323.00;;;;5051315;28;20045;-66
2023/09/21 05:47:10;;;;;;;4.68;2.88;;;;;17.70;97323.00;;;;5035447;28;20625;-65
2023/09/21 05:49:37;;;;;;;6.80;2.90;;;;;17.70;97326.00;;;;5054357;28;20047;-66
2023/09/21 05:52:11;;;;;;;6.78;3.03;;;;;17.70;97323.00;;;;5054521;28;20526;-66
2023/09/21 05:54:40;;;;;;;5.38;3.38;;;;;17.80;97330.00;;;;5055038;28;20119;-66
2023/09/21 05:57:06;;;;;;;4.47;2.58;;;;;17.80;97324.00;;;;5055983;28;20128;-66
2023/09/21 05:59:33;;;;;;;4.25;2.72;;;;;17.90;97329.00;;;;5059521;28;20044;-66
2023/09/21 06:02:03;;;;;;;4.22;2.13;;;;;17.90;97327.00;;;;5058918;28;20512;-66
2023/09/21 06:04:30;;;;;;;4.00;2.22;;;;;18.00;97317.00;;;;5055344;28;20045;-67
2023/09/21 06:06:58;;;;;;;6.10;2.30;;;;;18.10;97315.00;;;;5061702;28;20044;-67
2023/09/21 06:09:25;;;;;;;4.10;2.30;;;;;18.20;97330.00;;;;5059969;28;20132;-66
2023/09/21 06:11:51;;;;;;;2.45;1.70;;;;;18.40;97315.00;;;;5059261;28;20067;-67
2023/09/21 06:14:19;;;;;;;2.95;1.83;;;;;18.60;97320.00;;;;5057255;28;20045;-67
2023/09/21 06:16:45;;;;;;;2.17;1.45;;;;;18.80;97322.00;;;;5055921;28;20076;-66
2023/09/21 06:19:12;;;;;;;4.97;3.33;;;;;18.90;97312.00;;;;5056519;28;20037;-66
2023/09/21 06:21:42;;;;;;;3.20;2.67;;;;;19.00;97330.00;;;;5055273;28;20045;-66
2023/09/21 06:24:09;;;;;;;2.28;1.45;;;;;19.20;97326.00;;;;5055914;28;20110;-66
2023/09/21 06:26:36;;;;;;;2.47;1.60;;;;;19.30;97327.00;;;;5061292;28;20089;-66
2023/09/21 06:29:03;;;;;;;2.03;1.60;;;;;19.40;97327.00;;;;5056966;28;20045;-65
2023/09/21 06:31:30;;;;;;;1.30;1.20;;;;;19.50;97329.00;;;;5055484;28;20431;-65
2023/09/21 06:34:00;;;;;;;2.08;1.50;;;;;19.60;97329.00;;;;5055153;28;20098;-65
2023/09/21 06:36:29;;;;;;;1.40;1.10;;;;;19.70;97334.00;;;;5055903;28;20442;-65
2023/09/21 06:38:57;;;;;;;4.28;2.25;;;;;19.80;97326.00;;;;5056873;28;20048;-65
2023/09/21 06:41:25;;;;;;;2.22;1.80;;;;;19.80;97331.00;;;;5055916;28;20073;-65
2023/09/21 06:43:51;;;;;;;2.53;1.70;;;;;19.90;97341.00;;;;5055587;28;20053;-65
2023/09/21 06:46:18;;;;;;;3.53;2.15;;;;;19.90;97325.00;;;;5055666;28;20055;-65
2023/09/21 06:48:45;;;;;;;3.15;2.30;;;;;19.90;97339.00;;;;5056243;28;20102;-65
2023/09/21 06:51:12;;;;;;;1.85;1.30;;;;;19.90;97333.00;;;;5056293;28;20045;-65
2023/09/21 06:53:39;;;;;;;8.00;3.67;;;;;20.00;97336.00;;;;5056166;28;20064;-65
2023/09/21 06:56:06;;;;;;;1.83;1.70;;;;;20.00;97331.00;;;;5056421;28;20140;-65
2023/09/21 06:58:35;;;;;;;2.08;1.55;;;;;20.10;97326.00;;;;5056492;28;20077;-65
2023/09/21 07:01:05;;;;;;;3.47;2.50;;;;;20.10;97323.00;;;;5056543;28;20065;-65
2023/09/21 07:03:34;;;;;;;4.70;1.50;;;;;20.10;97323.00;;;;5056227;28;20049;-65
2023/09/21 07:06:01;;;;;;;2.45;1.30;;;;;20.10;97325.00;;;;5056983;28;20120;-65
2023/09/21 07:08:27;;;;;;;5.95;2.10;;;;;20.20;97314.00;;;;5056631;28;20128;-65
2023/09/21 07:10:54;;;;;;;2.58;2.15;;;;;20.20;97314.00;;;;5056876;28;20053;-65
2023/09/21 07:13:21;;;;;;;5.30;2.53;;;;;20.20;97313.00;;;;5056843;28;20053;-65
2023/09/21 07:15:52;;;;;;;3.75;2.45;;;;;20.20;97308.00;;;;5053108;28;20065;-66
2023/09/21 07:18:20;;;;;;;2.75;1.80;;;;;20.20;97316.00;;;;5055563;28;20060;-66
2023/09/21 07:20:47;;;;;;;2.17;1.70;;;;;20.20;97310.00;;;;5055904;28;20052;-67
2023/09/21 07:23:14;;;;;;;1.90;1.65;;;;;20.30;97304.00;;;;5056194;28;20037;-66
2023/09/21 07:25:41;;;;;;;2.10;1.70;;;;;20.30;97300.00;;;;5054535;28;20045;-66
2023/09/21 07:28:07;;;;;;;2.75;1.55;;;;;20.30;97299.00;;;;5055391;28;20468;-66
2023/09/21 07:30:37;;;;;;;5.85;2.15;;;;;20.30;97305.00;;;;5055731;28;20422;-66
2023/09/21 07:33:05;;;;;;;3.53;1.90;;;;;20.40;97305.00;;;;5058287;28;20490;-66
2023/09/21 07:35:32;;;;;;;3.00;1.85;;;;;20.40;97298.00;;;;5056601;28;20041;-66
2023/09/21 07:37:59;;;;;;;3.38;2.10;;;;;20.40;97298.00;;;;5056206;28;20402;-66
2023/09/21 07:40:28;;;;;;;2.65;2.15;;;;;20.50;97291.00;;;;5054409;28;20044;-66
2023/09/21 07:42:54;;;;;;;2.08;1.38;;;;;20.50;97290.00;;;;5054350;28;20486;-66
2023/09/21 07:45:22;;;;;;;1.80;1.70;;;;;20.60;97281.00;;;;5053855;28;20045;-66
2023/09/21 07:47:49;;;;;;;2.63;1.92;;;;;20.70;97285.00;;;;5054229;28;20055;-67
2023/09/21 07:50:22;;;;;;;3.88;2.47;;;;;20.80;97274.00;;;;5054267;28;20052;-67
2023/09/21 07:52:49;;;;;;;5.87;2.13;;;;;20.80;97273.00;;;;5054522;28;20136;-66
2023/09/21 07:55:16;;;;;;;4.50;1.98;;;;;21.00;97263.00;;;;5053978;28;20120;-67
2023/09/21 07:57:47;;;;;;;6.90;3.10;;;;;21.30;97277.00;;;;5053944;28;20068;-67
2023/09/21 08:00:14;;;;;;;3.65;2.05;;;;;21.60;97270.00;;;;5054052;28;20041;-67
2023/09/21 08:02:41;;;;;;;2.60;1.67;;;;;21.80;97263.00;;;;5053915;28;20053;-67
2023/09/21 08:05:12;;;;;;;4.13;2.10;;;;;22.10;97267.00;;;;5053658;28;20055;-67
2023/09/21 08:07:40;;;;;;;5.30;1.90;;;;;22.30;97260.00;;;;5051839;28;20044;-68
2023/09/21 08:10:08;;;;;;;3.22;1.85;;;;;22.60;97263.00;;;;5053643;28;20049;-67
2023/09/21 08:12:36;;;;;;;2.60;1.70;;;;;22.80;97263.00;;;;5053950;28;20041;-67
2023/09/21 08:15:06;;;;;;;3.95;2.15;;;;;23.00;97266.00;;;;5053378;28;20065;-67
2023/09/21 08:17:36;;;;;;;3.30;1.60;;;;;23.00;97264.00;;;;5054795;28;20076;-67
2023/09/21 08:20:10;;;;;;;3.97;2.88;;;;;23.10;97262.00;;;;5053541;28;20041;-67
2023/09/21 08:22:37;;;;;;;1.52;1.40;;;;;23.20;97256.00;;;;5053451;28;20127;-66
2023/09/21 08:25:06;;;;;;;2.38;1.98;;;;;23.30;97259.00;;;;5052534;28;20056;-66
2023/09/21 08:27:33;;;;;;;4.22;1.90;;;;;23.40;97257.00;;;;5052869;28;20037;-65
2023/09/21 08:30:03;;;;;;;2.88;2.10;;;;;23.60;97242.00;;;;5053390;28;20045;-66
2023/09/21 08:32:31;;;;;;;2.15;1.80;;;;;23.70;97249.00;;;;5053277;28;20385;-65
2023/09/21 08:34:57;;;;;;;4.85;1.70;;;;;23.90;97254.00;;;;5052307;28;20056;-66
2023/09/21 08:37:24;;;;;;;3.20;1.77;;;;;24.20;97244.00;;;;5052917;28;20052;-65
2023/09/21 08:39:50;;;;;;;2.05;1.30;;;;;24.30;97260.00;;;;5051659;28;20056;-66
2023/09/21 08:42:17;;;;;;;4.03;1.60;;;;;24.40;97249.00;;;;5052711;28;20047;-66
2023/09/21 08:44:47;;;;;;;1.95;1.45;;;;;24.60;97264.00;;;;5052395;28;20140;-65
2023/09/21 08:47:14;;;;;;;5.32;2.70;;;;;24.70;97254.00;;;;5052828;28;20068;-65
2023/09/21 08:50:03;;;;;;;2.60;1.63;;;;;24.90;97256.00;;;;5053103;28;20044;-65
2023/09/21 08:52:34;;;;;;;2.05;1.30;;;;;25.20;97260.00;;;;5053025;28;20067;-66
2023/09/21 08:55:01;;;;;;;1.60;1.50;;;;;25.20;97252.00;;;;5051081;28;20401;-65
2023/09/21 08:57:28;;;;;;;5.25;1.60;;;;;25.30;97245.00;;;;5052761;28;20049;-65
2023/09/21 08:59:58;;;;;;;1.50;1.20;;;;;25.30;97252.00;;;;5052725;28;20130;-65
2023/09/21 09:02:25;;;;;;;6.70;5.18;;;;;25.30;97244.00;;;;5052974;28;20051;-65
2023/09/21 09:04:52;;;;;;;1.92;1.50;;;;;25.30;97246.00;;;;5052098;28;20051;-65
2023/09/21 09:07:20;;;;;;;3.20;1.60;;;;;25.40;97238.00;;;;5052899;28;20139;-65
2023/09/21 09:09:47;;;;;;;2.72;1.38;;;;;25.50;97230.00;;;;5052004;28;20120;-65
2023/09/21 09:12:23;;;;;;;0.80;0.75;;;;;25.70;97237.00;;;;5053302;28;20052;-65
2023/09/21 09:14:51;;;;;;;3.35;1.85;;;;;25.80;97233.00;;;;5050843;28;20072;-65
2023/09/21 09:17:18;;;;;;;2.92;1.90;;;;;26.00;97227.00;;;;5052665;28;20044;-65
2023/09/21 09:19:48;;;;;;;1.88;1.63;;;;;26.10;97222.00;;;;5052932;28;20501;-65
2023/09/21 09:22:16;;;;;;;3.35;1.23;;;;;26.10;97212.00;;;;5053398;28;20049;-65
2023/09/21 09:24:49;;;;;;;3.08;1.55;;;;;26.10;97211.00;;;;5051744;28;20413;-65
2023/09/21 09:27:16;;;;;;;4.28;0.98;;;;;26.00;97207.00;;;;5052659;28;20073;-65
2023/09/21 09:29:52;;;;;;;1.65;1.23;;;;;26.00;97204.00;;;;5034812;28;20048;-65
2023/09/21 09:32:20;;;;;;;1.88;0.80;;;;;26.00;97216.00;;;;5052479;28;20083;-65
2023/09/21 09:34:47;;;;;;;1.65;1.40;;;;;26.10;97208.00;;;;5050528;28;20075;-65
2023/09/21 09:37:15;;;;;;;5.15;1.75;;;;;26.00;97219.00;;;;5052368;28;20036;-65
2023/09/21 09:39:45;;;;;;;2.03;1.73;;;;;25.90;97205.00;;;;5051285;28;20445;-65
2023/09/21 09:42:15;;;;;;;1.63;1.10;;;;;25.90;97218.00;;;;5052115;28;20052;-65
2023/09/21 09:44:48;;;;;;;1.58;0.90;;;;;25.80;97213.00;;;;5051558;28;20440;-65
2023/09/21 09:47:18;;;;;;;2.15;1.30;;;;;26.00;97211.00;;;;5051961;28;20037;-65
2023/09/21 09:49:49;;;;;;;2.95;1.15;;;;;26.20;97213.00;;;;5052159;28;20041;-65
2023/09/21 09:52:18;;;;;;;1.98;1.00;;;;;26.20;97205.00;;;;5052158;28;20068;-64
2023/09/21 09:54:51;;;;;;;2.80;1.20;;;;;26.30;97205.00;;;;5051377;28;20041;-64
2023/09/21 09:57:21;;;;;;;1.55;1.20;;;;;26.20;97207.00;;;;5050676;28;20044;-65
2023/09/21 09:59:48;;;;;;;2.97;1.40;;;;;26.10;97207.00;;;;5052202;28;20083;-65
2023/09/21 10:02:18;;;;;;;1.08;0.98;;;;;26.20;97210.00;;;;5052356;28;20044;-65
2023/09/21 10:04:49;;;;;;;2.72;0.95;;;;;26.20;97202.00;;;;5051899;28;20494;-65
2023/09/21 10:07:17;;;;;;;6.53;1.25;;;;;26.20;97194.00;;;;5050844;28;20045;-65
2023/09/21 10:09:45;;;;;;;1.38;0.90;;;;;26.30;97191.00;;;;5051805;28;20458;-65
2023/09/21 10:12:14;;;;;;;3.08;1.27;;;;;26.30;97192.00;;;;5052330;28;20077;-66
2023/09/21 10:14:44;;;;;;;2.97;1.08;;;;;26.30;97194.00;;;;5054318;28;20140;-66
2023/09/21 10:17:14;;;;;;;4.97;1.13;;;;;26.20;97190.00;;;;5055096;28;20103;-67
2023/09/21 10:19:43;;;;;;;1.63;1.10;;;;;26.10;97179.00;;;;5054454;28;20120;-65
2023/09/21 10:22:26;;;;;;;4.88;1.70;;;;;26.40;97175.00;;;;5055182;28;20048;-66
2023/09/21 10:24:58;;;;;;;3.13;1.30;;;;;26.70;97166.00;;;;5053935;28;20072;-67
2023/09/21 10:27:27;;;;;;;2.13;1.40;;;;;26.90;97162.00;;;;5053300;28;20045;-64
2023/09/21 10:30:00;;;;;;;1.83;1.42;;;;;27.10;97161.00;;;;5054265;28;20045;-64
2023/09/21 10:32:41;;;;;;;2.72;1.40;;;;;27.10;97154.00;;;;5054540;28;20053;-65
2023/09/21 10:35:12;;;;;;;1.33;0.98;;;;;27.10;97152.00;;;;5057794;28;20048;-66
2023/09/21 10:37:40;;;;;;;3.22;1.00;;;;;27.10;97140.00;;;;5057098;28;20055;-65
2023/09/21 10:40:08;;;;;;;2.17;1.45;;;;;27.10;97153.00;;;;5056098;28;20044;-65
2023/09/21 10:42:39;;;;;;;2.05;1.20;;;;;27.10;97151.00;;;;5054774;28;20090;-65
2023/09/21 10:45:07;;;;;;;1.70;1.10;;;;;27.00;97140.00;;;;5052918;28;20104;-65
2023/09/21 10:47:44;;;;;;;1.60;1.10;;;;;27.00;97144.00;;;;5037391;28;20049;-65
2023/09/21 10:50:13;;;;;;;1.40;0.93;;;;;27.00;97138.00;;;;5054872;28;20049;-65
2023/09/21 10:52:44;;;;;;;1.67;0.70;;;;;27.10;97132.00;;;;5057932;28;20064;-65
2023/09/21 10:55:14;;;;;;;1.05;0.80;;;;;27.40;97120.00;;;;5062752;28;20068;-65
2023/09/21 10:57:42;;;;;;;1.05;0.70;;;;;27.50;97103.00;;;;5073464;28;20029;-65
2023/09/21 11:00:16;;;;;;;1.00;0.95;;;;;27.60;97111.00;;;;5075906;28;20124;-65
2023/09/21 11:02:50;;;;;;;2.80;1.88;;;;;27.90;97109.00;;;;5074322;28;20053;-65
2023/09/21 11:05:21;;;;;;;1.00;0.80;;;;;27.80;97109.00;;;;5074078;28;20060;-65
2023/09/21 11:07:54;;;;;;;3.42;1.70;;;;;27.80;97107.00;;;;5077566;28;20033;-65
2023/09/21 11:10:21;;;;;;;2.03;1.15;;;;;27.70;97101.00;;;;5076452;28;20071;-65
2023/09/21 11:12:48;;;;;;;2.88;1.20;;;;;27.50;97095.00;;;;5075754;28;20104;-65
2023/09/21 11:15:18;;;;;;;1.77;1.40;;;;;27.40;97096.00;;;;5076369;28;20113;-65
2023/09/21 11:17:46;;;;;;;1.98;1.63;;;;;27.30;97092.00;;;;5077940;28;20084;-65
2023/09/21 11:20:17;;;;;;;1.15;1.05;;;;;27.10;97100.00;;;;5078601;28;20100;-65
2023/09/21 11:22:46;;;;;;;1.70;1.08;;;;;27.00;97089.00;;;;5077865;28;20048;-65
2023/09/21 11:25:16;;;;;;;1.83;1.05;;;;;26.90;97087.00;;;;5076677;28;20041;-65
2023/09/21 11:27:43;;;;;;;1.40;1.08;;;;;26.90;97086.00;;;;5076711;28;20033;-64
2023/09/21 11:30:13;;;;;;;1.75;1.00;;;;;26.80;97088.00;;;;5077143;28;20109;-64
2023/09/21 11:32:52;;;;;;;2.30;1.15;;;;;26.80;97087.00;;;;5075919;28;20056;-64
2023/09/21 11:35:21;;;;;;;1.60;1.17;;;;;26.80;97093.00;;;;5075945;28;20091;-66
2023/09/21 11:37:50;;;;;;;1.95;1.00;;;;;26.70;97093.00;;;;5075798;28;20067;-65
2023/09/21 11:40:21;;;;;;;2.03;1.10;;;;;26.70;97089.00;;;;5073462;28;20045;-65
2023/09/21 11:42:48;;;;;;;2.55;1.20;;;;;26.70;97082.00;;;;5075393;28;20100;-65
2023/09/21 11:45:20;;;;;;;1.00;0.90;;;;;26.90;97068.00;;;;5074857;28;20083;-65
2023/09/21 11:47:48;;;;;;;2.72;1.30;;;;;27.00;97067.00;;;;5074660;28;20045;-65
2023/09/21 11:50:25;;;;;;;2.83;1.10;;;;;27.00;97062.00;;;;5074387;28;20135;-65
2023/09/21 11:52:54;;;;;;;1.58;0.95;;;;;26.90;97065.00;;;;5074344;28;20045;-66
2023/09/21 11:55:29;;;;;;;1.15;0.80;;;;;27.00;97058.00;;;;5070219;28;20064;-65
2023/09/21 11:58:14;;;;;;;1.15;0.90;;;;;27.10;97056.00;;;;5074411;28;20097;-66
2023/09/21 12:00:43;;;;;;;1.70;1.13;;;;;27.00;97043.00;;;;5075141;28;20057;-66
2023/09/21 12:03:18;;;;;;;2.15;1.50;;;;;26.80;97045.00;;;;5074722;28;20049;-65
2023/09/21 12:05:45;;;;;;;2.60;1.67;;;;;26.70;97037.00;;;;5072833;28;20060;-65
2023/09/21 12:08:14;;;;;;;1.30;1.20;;;;;26.70;97042.00;;;;5073619;28;20076;-65
2023/09/21 12:10:41;;;;;;;1.60;1.10;;;;;26.50;97037.00;;;;5073127;28;20067;-65
2023/09/21 12:13:11;;;;;;;1.90;1.00;;;;;26.40;97037.00;;;;5063665;28;20414;-65
2023/09/21 12:15:41;;;;;;;4.30;1.30;;;;;26.30;97033.00;;;;5062674;28;20041;-65
2023/09/21 12:18:10;;;;;;;;;;;;;26.30;97039.00;;;;5060214;28;20044;-65
2023/09/21 12:20:44;;;;;;;1.42;1.00;;;;;26.00;97036.00;;;;5058776;28;20377;-65
2023/09/21 12:23:12;;;;;;;1.83;1.10;;;;;26.00;97037.00;;;;5064018;28;20075;-65
2023/09/21 12:25:39;;;;;;;2.25;0.90;;;;;26.10;97029.00;;;;5063912;28;20109;-65
2023/09/21 12:28:09;;;;;;;2.67;1.45;;;;;26.20;97033.00;;;;5065951;28;20064;-65
2023/09/21 12:30:43;;;;;;;2.45;1.20;;;;;26.50;97025.00;;;;5067225;28;20053;-65
2023/09/21 12:33:15;;;;;;;2.15;1.55;;;;;26.50;97019.00;;;;5067755;28;20079;-65